03:18
Airports
History
Links
Donate
Help keep this website running!
PayPal
Bitcoin
This page is community maintained. The information is intended for PC simulator navigation or reference.
Always use approved charts for navigation.
4U2
Barrett Field
Barrett Field (4U2)
Cascade, Montana, United States (59421)
4
Lat/Lng:47° 14' 14.82" N / 111° 44' 32.95" W
47.237449 / -111.742485
Elevation:3350'ft / 1021mMSL
ID / ICAO:4U2
Runways:1
Longest:05-23
Grass 676m / 2,218ft
Nearby Weather02:53 GMT 2018-02-21
Nearby weather at KGTF, Great Falls Intl located 24.3 nautical miles from 4U2
Altimeter: 30.08
Visibility: 10.0 statute miles
Wind: 0 knots (from 000°)
Temp: -19°c / -2°f
Humidity: 64.4%

METAR: KGTF 210253Z 00000KT 10SM FEW100 M19/M24 A3008 RMK AO2 SLP292 T11941239 50006

(Powered by phpweather)
Nearby VORs <50NM
Nearby NDBs
Runway 05 / 23
Dimensions:675.9 x 22.9m 2218' x 75'ft
Surface:Grass
Runway 05 [A]Runway 23 [B]
Heading:061°TH 241°TH
Lat:
Lng:
47° 14' 9.72"N
111° 44' 47.07"W
47° 14' 19.91"N
111° 44' 18.82"W
User Notes and Comments
47° 14' 14.82" N / 111° 44' 32.95" W
Distance To
Airport ID:
Nearby Airports
4 Cascade 2.5 NM
78S NNE 22°
(R) Bar E 16.8 NM
MT86 WSW 253°
(R) Bair 16.8 NM
MT33 NE 45°
(R) Smith Farms 17.0 NM
MT76 NE 48°
4 Buchanan Ranch 18.8 NM
MT75 NE 44°
4 Ox Bow Ranch 21.7 NM
6U4 SW 214°
(C) Great Falls Intl 24.3 NM
KGTF ( WX ) NE 45°
VFR Chart
Flight Planning at SkyVector.com